Latest Weather Observations for St Lawrence

IDQ60801

Issued at 12:42 pm EST Thursday 1 October 2020 (issued every 10 minutes, with the page automatically refreshed every 10 minutes)

About weather observations | Map of weather stations | Latest weather observations for QLD | Other Formats
Station Details ID: 033210 Name: ST LAWRENCE Lat: -22.35 Lon: 149.52 Height: 9.19 m
Data from the previous 72 hours. | See also: Recent months at St Lawrence
Date/Time
EST
Temp
°C
App
Temp
°C
Dew
Point
°C
Rel
Hum
%
Delta-T
°C
Wind Press
QNH
hPa
Press
MSL
hPa
Rain since
9am
mm
Dir  Spd
km/h
Gust
km/h
Spd
kts
Gust
kts
01/12:30pm 26.7 24.9 15.4 50 6.9 N 19 24 10 13 1018.3 1018.3 0.0
01/12:00pm 26.0 24.5 15.4 52 6.4 N 17 24 9 13 1018.7 1018.7 0.0
01/11:30am 25.6 24.0 15.0 52 6.4 NNE 17 20 9 11 1019.0 1019.0 0.0
01/11:00am 25.2 24.1 15.2 54 6.0 NNE 15 20 8 11 1019.2 1019.2 0.0
01/10:30am 25.1 23.5 15.1 53 6.0 NNE 17 22 9 12 1019.4 1019.4 0.0
01/10:00am 24.6 23.8 15.2 55 5.6 N 13 20 7 11 1019.6 1019.6 0.0
01/09:30am 24.5 23.8 15.4 57 5.5 NNE 13 20 7 11 1019.6 1019.6 0.0
01/09:00am 23.4 23.3 14.9 59 5.0 N 9 15 5 8 1019.7 1019.7 0.0
01/08:30am 22.7 22.7 14.3 59 4.9 NE 7 11 4 6 1019.8 1019.8 0.0
01/08:00am 21.3 21.3 14.2 64 4.1 SE 7 11 4 6 1019.6 1019.6 0.0
01/07:30am 19.4 19.3 13.8 70 3.2 SSW 7 9 4 5 1019.4 1019.4 0.0
01/07:00am 16.6 16.6 13.5 82 1.7 SW 6 7 3 4 1018.9 1018.9 0.0
01/06:30am 14.8 15.4 13.0 89 1.0 SSW 2 7 1 4 1018.4 1018.4 0.0
01/06:00am 13.6 14.0 11.1 85 1.3 CALM 0 0 0 0 1017.8 1017.8 0.0
01/05:30am 14.4 13.9 12.1 86 1.2 S 6 7 3 4 1017.8 1017.8 0.0
01/05:00am 14.9 14.6 12.6 86 1.3 S 6 7 3 4 1017.7 1017.7 0.0
01/04:30am 14.6 14.2 12.3 86 1.3 SSE 6 7 3 4 1017.6 1017.6 0.0
01/04:00am 14.4 15.1 12.1 86 1.2 CALM 0 0 0 0 1017.2 1017.2 0.0
01/03:30am 14.3 14.9 12.0 86 1.2 CALM 0 0 0 0 1017.1 1017.1 0.0
01/03:00am 14.5 15.1 12.0 85 1.3 CALM 0 0 0 0 1017.3 1017.3 0.0
01/02:30am 14.8 15.4 11.9 83 1.6 CALM 0 0 0 0 1017.4 1017.4 0.0
01/02:00am 15.9 15.4 12.1 78 2.1 SSE 6 9 3 5 1017.6 1017.6 0.0
01/01:30am 16.6 16.1 12.6 77 2.2 SSE 7 9 4 5 1018.0 1018.0 0.0
01/01:00am 16.8 15.9 12.7 77 2.3 SSE 9 11 5 6 1018.3 1018.3 0.0
01/12:30am 17.1 16.2 12.6 75 2.5 SSE 9 11 5 6 1018.7 1018.7 0.0
01/12:00am 18.4 18.1 13.3 72 2.9 ESE 7 9 4 5 1019.0 1019.0 0.0
 
Date/Time
EST
Temp
°C
App
Temp
°C
Dew
Point
°C
Rel
Hum
%
Delta-T
°C
Wind Press
QNH
hPa
Press
MSL
hPa
Rain since
9am
mm
Dir  Spd
km/h
Gust
km/h
Spd
kts
Gust
kts
30/11:30pm 18.9 18.7 13.5 71 3.1 E 7 11 4 6 1019.1 1019.1 0.0
30/11:00pm 19.5 19.3 13.7 69 3.3 E 7 9 4 5 1019.2 1019.2 0.0
30/10:30pm 19.7 19.5 13.6 68 3.5 E 7 11 4 6 1019.3 1019.3 0.0
30/10:00pm 19.8 19.4 13.0 65 3.8 E 7 9 4 5 1019.3 1019.3 0.0
30/09:30pm 20.4 20.0 13.1 63 4.2 ENE 7 11 4 6 1019.3 1019.3 0.0
30/09:00pm 20.8 20.0 13.0 61 4.4 NE 9 17 5 9 1019.1 1019.1 0.0
30/08:30pm 21.1 19.6 13.0 60 4.6 NE 13 19 7 10 1018.7 1018.7 0.0
30/08:00pm 21.0 20.0 13.4 62 4.4 NE 11 17 6 9 1018.3 1018.3 0.0
30/07:30pm 21.2 19.9 13.6 62 4.4 NNE 13 19 7 10 1018.0 1018.0 0.0
30/07:00pm 21.4 20.2 14.1 63 4.2 NNE 13 19 7 10 1017.6 1017.6 0.0
30/06:30pm 21.8 20.5 14.7 64 4.2 NNE 15 22 8 12 1017.2 1017.2 0.0
30/06:00pm 22.3 19.9 14.4 61 4.6 NNE 20 28 11 15 1016.7 1016.7 0.0
30/05:30pm 23.0 20.9 14.8 60 4.9 NNE 19 28 10 15 1016.3 1016.3 0.0
30/05:00pm 23.3 20.5 14.3 57 5.3 NNE 22 30 12 16 1015.8 1015.8 0.0
30/04:30pm 24.2 20.7 13.4 51 6.3 NNE 24 33 13 18 1015.6 1015.6 0.0
30/04:00pm 24.5 20.9 13.1 49 6.6 N 24 32 13 17 1015.6 1015.6 0.0
30/03:30pm 25.2 22.4 13.1 47 7.0 NNE 20 30 11 16 1015.6 1015.6 0.0
30/03:00pm 25.8 22.8 12.6 44 7.6 NNE 20 28 11 15 1015.8 1015.8 0.0
30/02:30pm 25.4 22.2 11.9 43 7.7 NNE 20 30 11 16 1016.3 1016.3 0.0
30/02:00pm 26.0 22.5 11.0 39 8.4 NNE 20 30 11 16 1016.7 1016.7 0.0
30/01:30pm 26.4 22.8 10.5 37 8.9 N 20 32 11 17 1017.2 1017.2 0.0
30/01:00pm 25.9 21.7 8.4 33 9.4 NNE 20 33 11 18 1017.7 1017.7 0.0
30/12:30pm 26.5 22.7 9.8 35 9.2 N 20 28 11 15 1018.0 1018.0 0.0
30/12:00pm 26.3 22.8 8.8 33 9.5 NE 17 32 9 17 1018.5 1018.5 0.0
30/11:30am 25.7 22.6 10.3 38 8.6 NNE 17 30 9 16 1018.5 1018.5 0.0
30/11:00am 25.0 21.6 11.2 42 7.8 NNE 20 32 11 17 1019.0 1019.0 0.0
30/10:30am 25.1 22.3 11.3 42 7.8 NE 17 30 9 16 1019.3 1019.3 0.0
30/10:00am 25.4 23.3 12.3 44 7.5 ENE 15 26 8 14 1019.8 1019.8 0.0
30/09:30am 24.4 21.9 12.4 47 6.9 ENE 17 28 9 15 1020.1 1020.1 0.0
30/09:00am 23.8 21.6 12.1 48 6.6 ENE 15 26 8 14 1020.2 1020.2 0.0
30/08:30am 23.1 21.2 13.0 53 5.8 E 15 24 8 13 1020.2 1020.2 0.0
30/08:00am 22.1 20.4 12.6 55 5.4 E 13 19 7 10 1020.1 1020.1 0.0
30/07:30am 20.6 20.5 13.8 65 3.9 ESE 7 13 4 7 1019.7 1019.7 0.0
30/07:00am 17.8 17.0 12.9 73 2.7 SSE 9 13 5 7 1019.6 1019.6 0.0
30/06:30am 16.3 16.0 13.2 82 1.7 SSE 7 11 4 6 1019.5 1019.5 0.0
30/06:00am 15.6 14.7 12.7 83 1.6 SSE 9 11 5 6 1019.3 1019.3 0.0
30/05:30am 15.3 14.0 12.6 84 1.5 SSE 11 15 6 8 1019.1 1019.1 0.0
30/05:00am 15.7 14.9 13.0 84 1.5 SSE 9 13 5 7 1018.8 1018.8 0.0
30/04:30am 14.7 15.5 12.4 86 1.3 CALM 0 0 0 0 1018.4 1018.4 0.0
30/04:00am 14.7 14.7 12.4 86 1.3 SSE 4 7 2 4 1018.4 1018.4 0.0
30/03:30am 15.9 15.4 12.6 81 1.8 SSE 7 9 4 5 1018.5 1018.5 0.0
30/03:00am 16.0 16.0 12.4 79 2.0 SSE 4 7 2 4 1018.7 1018.7 0.0
30/02:30am 17.0 16.3 13.3 79 2.1 SSE 9 11 5 6 1019.1 1019.1 0.0
30/02:00am 17.6 17.3 13.3 76 2.4 SE 7 9 4 5 1019.3 1019.3 0.0
30/01:30am 17.2 16.5 13.1 77 2.3 SE 9 11 5 6 1019.7 1019.7 0.0
30/01:00am 17.4 16.7 13.1 76 2.4 SSE 9 13 5 7 1020.2 1020.2 0.0
30/12:30am 17.8 17.5 13.3 75 2.5 SSE 7 9 4 5 1020.7 1020.7 0.0
30/12:00am 18.8 18.7 13.9 73 2.8 SE 7 9 4 5 1021.0 1021.0 0.0
 
Date/Time
EST
Temp
°C
App
Temp
°C
Dew
Point
°C
Rel
Hum
%
Delta-T
°C
Wind Press
QNH
hPa
Press
MSL
hPa
Rain since
9am
mm
Dir  Spd
km/h
Gust
km/h
Spd
kts
Gust
kts
29/11:30pm 19.0 18.8 13.6 71 3.1 ESE 7 9 4 5 1020.9 1020.9 0.0
29/11:00pm 19.7 19.6 13.9 69 3.3 ESE 7 7 4 4 1021.2 1021.2 0.0
29/10:30pm 20.0 19.8 13.7 67 3.6 ESE 7 13 4 7 1021.4 1021.4 0.0
29/10:00pm 20.8 19.9 13.7 64 4.1 E 11 17 6 9 1021.4 1021.4 0.0
29/09:30pm 20.9 20.4 13.8 64 4.1 E 9 17 5 9 1021.2 1021.2 0.0
29/09:00pm 21.4 20.1 13.6 61 4.5 E 13 19 7 10 1020.7 1020.7 0.0
29/08:30pm 21.8 21.1 14.2 62 4.4 ENE 11 19 6 10 1020.2 1020.2 0.0
29/08:00pm 21.4 20.7 13.3 60 4.6 E 9 19 5 10 1019.8 1019.8 0.0
29/07:30pm 21.7 20.4 13.6 60 4.7 ENE 13 20 7 11 1019.4 1019.4 0.0
29/07:00pm 22.1 20.3 13.2 57 5.1 ENE 15 24 8 13 1019.1 1019.1 0.0
29/06:30pm 22.6 20.9 13.7 57 5.2 NE 15 24 8 13 1018.6 1018.6 0.0
29/06:00pm 23.0 20.7 12.9 53 5.8 NNE 17 24 9 13 1018.3 1018.3 0.0
29/05:30pm 23.7 20.6 13.3 52 6.0 NNE 22 28 12 15 1017.7 1017.7 0.0
29/05:00pm 24.2 21.5 13.4 51 6.3 NNE 20 28 11 15 1017.4 1017.4 0.0
29/04:30pm 24.8 22.2 13.7 50 6.5 NNE 20 28 11 15 1017.2 1017.2 0.0
29/04:00pm 25.3 23.3 15.0 53 6.2 NNE 19 30 10 16 1017.2 1017.2 0.0
29/03:30pm 25.4 22.7 13.6 48 6.9 NNE 20 32 11 17 1017.3 1017.3 0.0
29/03:00pm 25.0 21.9 13.5 48 6.7 NNE 22 32 12 17 1017.6 1017.6 0.0
29/02:30pm 26.1 23.9 14.9 50 6.7 NNE 20 28 11 15 1018.0 1018.0 0.0
29/02:00pm 25.1 22.3 13.3 48 6.9 N 20 30 11 16 1018.5 1018.5 0.0
29/01:30pm 25.1 22.4 13.6 49 6.7 NNE 20 30 11 16 1019.1 1019.1 0.0
29/01:00pm 25.4 22.0 12.6 45 7.4 N 22 32 12 17 1019.6 1019.6 0.0
29/12:30pm 25.1 22.1 12.7 46 7.2 NNE 20 30 11 16 1020.1 1020.1 0.0
29/12:00pm 25.1 22.5 13.3 48 6.9 NNE 19 32 10 17 1020.6 1020.6 0.0
29/11:30am 24.7 21.9 13.3 49 6.6 NNE 20 28 11 15 1021.2 1021.2 0.0
29/11:00am 24.7 21.3 12.6 47 6.9 N 22 30 12 16 1021.7 1021.7 0.0
29/10:30am 25.5 22.9 13.7 48 6.9 N 20 30 11 16 1022.0 1022.0 0.0
29/10:00am 25.2 22.9 13.1 47 7.0 NE 17 26 9 14 1022.1 1022.1 0.0
29/09:30am 23.9 22.3 12.8 49 6.4 NE 13 24 7 13 1022.1 1022.1 0.0
29/09:00am 24.2 22.5 13.7 52 6.1 E 15 20 8 11 1022.0 1022.0 0.0
29/08:30am 23.4 22.5 13.8 54 5.6 E 11 22 6 12 1022.0 1022.0 0.0
29/08:00am 21.8 21.3 13.7 60 4.7 SE 9 11 5 6 1021.6 1021.6 0.0
29/07:30am 20.1 19.8 13.3 65 3.9 S 7 11 4 6 1021.2 1021.2 0.0
29/07:00am 17.6 17.9 13.3 76 2.4 S 4 9 2 5 1020.9 1020.9 0.0
29/06:30am 15.5 15.1 12.3 81 1.7 SSW 6 7 3 4 1020.4 1020.4 0.0
29/06:00am 15.3 14.9 12.4 83 1.6 SSE 6 9 3 5 1019.8 1019.8 0.0
29/05:30am 14.3 13.7 12.2 87 1.1 SSE 7 9 4 5 1019.5 1019.5 0.0
29/05:00am 13.9 13.1 11.6 86 1.2 S 7 7 4 4 1019.4 1019.4 0.0
29/04:30am 14.2 14.8 11.9 86 1.2 CALM 0 0 0 0 1019.2 1019.2 0.0
29/04:00am 14.3 14.8 11.6 84 1.4 CALM 0 0 0 0 1019.2 1019.2 0.0
29/03:30am 14.9 14.4 11.9 82 1.6 SSE 6 7 3 4 1019.1 1019.1 0.0
29/03:00am 16.6 16.0 12.2 75 2.4 SSE 7 9 4 5 1019.2 1019.2 0.0
29/02:30am 16.7 15.8 12.7 77 2.2 SSE 9 9 5 5 1019.3 1019.3 0.0
29/02:00am 16.8 15.9 12.7 77 2.3 SSE 9 9 5 5 1019.5 1019.5 0.0
29/01:30am 16.7 16.2 12.7 77 2.2 SSE 7 11 4 6 1019.9 1019.9 0.0
29/01:00am 17.1 16.9 13.0 77 2.3 ESE 6 9 3 5 1020.0 1020.0 0.0
29/12:30am 17.3 17.9 13.2 77 2.3 ESE 2 7 1 4 1020.4 1020.4 0.0
29/12:00am 17.9 18.8 13.0 73 2.7 CALM 0 6 0 3 1020.6 1020.6 0.0
 
Date/Time
EST
Temp
°C
App
Temp
°C
Dew
Point
°C
Rel
Hum
%
Delta-T
°C
Wind Press
QNH
hPa
Press
MSL
hPa
Rain since
9am
mm
Dir  Spd
km/h
Gust
km/h
Spd
kts
Gust
kts
28/11:30pm 19.0 18.8 13.0 68 3.4 E 6 7 3 4 1020.7 1020.7 0.0
28/11:00pm 20.1 19.7 13.1 64 4.0 E 7 11 4 6 1020.9 1020.9 0.0
28/10:30pm 20.6 20.2 13.1 62 4.3 ENE 7 15 4 8 1020.9 1020.9 0.0
28/10:00pm 20.8 20.1 13.3 62 4.3 ENE 9 13 5 7 1021.0 1021.0 0.0
28/09:30pm 21.1 20.4 13.3 61 4.5 ENE 9 15 5 8 1021.0 1021.0 0.0
28/09:00pm 21.3 20.3 13.5 61 4.5 NE 11 17 6 9 1021.0 1021.0 0.0
28/08:30pm 21.3 20.9 14.0 63 4.2 ENE 9 15 5 8 1020.7 1020.7 0.0
28/08:00pm 21.7 20.9 14.1 62 4.4 NE 11 19 6 10 1020.4 1020.4 0.0
28/07:30pm 21.8 21.3 13.9 61 4.6 NE 9 17 5 9 1020.3 1020.3 0.0
28/07:00pm 22.1 21.0 14.2 61 4.6 NE 13 20 7 11 1020.0 1020.0 0.0
28/06:30pm 22.5 21.1 14.4 60 4.8 NE 15 24 8 13 1019.6 1019.6 0.0
28/06:00pm 22.8 21.3 14.1 58 5.1 NNE 15 22 8 12 1019.0 1019.0 0.0
28/05:30pm 23.5 21.1 14.5 57 5.3 NNE 20 28 11 15 1018.6 1018.6 0.0
28/05:00pm 24.2 21.7 14.0 53 6.0 NNE 20 32 11 17 1018.2 1018.2 0.0
28/04:30pm 24.6 20.8 12.5 46 7.0 N 24 33 13 18 1018.1 1018.1 0.0
28/04:00pm 25.1 21.0 11.6 42 7.6 NNE 24 32 13 17 1017.9 1017.9 0.0
28/03:30pm 25.5 21.5 13.0 46 7.3 N 26 37 14 20 1017.8 1017.8 0.0
28/03:00pm 25.9 22.3 13.1 45 7.5 N 24 32 13 17 1017.9 1017.9 0.0
28/02:30pm 26.1 22.5 13.2 44 7.5 N 24 37 13 20 1018.2 1018.2 0.0
28/02:00pm 26.3 22.9 13.8 46 7.4 NNE 24 35 13 19 1018.5 1018.5 0.0
28/01:30pm 26.0 22.3 12.8 44 7.7 NNE 24 32 13 17 1018.9 1018.9 0.0
28/01:00pm 25.9 22.4 13.4 46 7.3 N 24 33 13 18 1019.2 1019.2 0.0

Other formats

Comma delimited format used in spreadsheet applications
http://www.bom.gov.au/fwo/IDQ60801/IDQ60801.95369.axf

JavaScript Object Notation format (JSON) in row-major order
http://www.bom.gov.au/fwo/IDQ60801/IDQ60801.95369.json

Data quality

Most of these data are generated automatically and are frequently updated. Quality checks on data are not normally performed. It is possible for incorrect values to appear. Refer to information at About Latest Weather Observations and please check the disclaimer before using these data.